Time;durP1;ratioP1;P1;durP2;ratioP2;P2;SDS_P1;SDS_P2;PMS_P1;PMS_P2;Temp;Humidity;BMP_temperature;BMP_pressure;BME280_temperature;BME280_humidity;BME280_pressure;Samples;Min_cycle;Max_cycle;Signal;HPM_P1;HPM_P2
2022/11/23 00:01:48;;;;;;;8.20;5.80;;;;;;;8.79;100.00;93632.28;5093486;28;20889;-77
2022/11/23 00:04:15;;;;;;;9.90;7.17;;;;;;;8.75;100.00;93626.53;5093387;28;20444;-78
2022/11/23 00:06:43;;;;;;;6.73;6.00;;;;;;;8.79;100.00;93624.44;5093013;28;20440;-77
2022/11/23 00:09:11;;;;;;;5.80;5.20;;;;;;;8.77;100.00;93629.00;5093231;28;20466;-77
2022/11/23 00:11:38;;;;;;;8.17;6.23;;;;;;;8.68;100.00;93626.31;5092917;28;20441;-78
2022/11/23 00:14:05;;;;;;;12.03;5.83;;;;;;;8.67;100.00;93622.06;5093108;28;20654;-77
2022/11/23 00:16:31;;;;;;;5.80;4.97;;;;;;;8.63;100.00;93628.53;5093144;28;20447;-78
2022/11/23 00:19:00;;;;;;;5.10;4.43;;;;;;;8.57;100.00;93628.31;5092719;28;20482;-78
2022/11/23 00:21:28;;;;;;;9.00;4.73;;;;;;;8.55;100.00;93638.91;5093116;28;20444;-77
2022/11/23 00:23:57;;;;;;;7.63;4.47;;;;;;;8.56;100.00;93652.81;5093113;28;20466;-77
2022/11/23 00:26:23;;;;;;;6.97;4.10;;;;;;;8.57;100.00;93649.22;5092950;28;20440;-78
2022/11/23 00:28:51;;;;;;;5.17;4.67;;;;;;;8.61;100.00;93647.94;5093118;28;20440;-77
2022/11/23 00:31:19;;;;;;;4.10;3.80;;;;;;;8.66;100.00;93633.44;5092519;28;20448;-78
2022/11/23 00:33:49;;;;;;;4.87;3.73;;;;;;;8.72;100.00;93631.25;5092480;28;20476;-78
2022/11/23 00:36:17;;;;;;;7.57;4.37;;;;;;;8.73;100.00;93638.13;5093019;28;20946;-77
2022/11/23 00:38:44;;;;;;;10.27;4.40;;;;;;;8.74;100.00;93639.75;5092651;28;20484;-78
2022/11/23 00:41:15;;;;;;;5.80;4.47;;;;;;;8.78;100.00;93630.63;5092727;28;20844;-78
2022/11/23 00:43:42;;;;;;;5.20;4.70;;;;;;;8.80;100.00;93626.06;5092662;28;20448;-77
2022/11/23 00:46:15;;;;;;;6.40;4.90;;;;;;;8.71;100.00;93638.25;5092615;28;20440;-78
2022/11/23 00:48:42;;;;;;;5.00;4.17;;;;;;;8.72;100.00;93642.53;5092106;28;20444;-78
2022/11/23 00:51:11;;;;;;;5.10;4.70;;;;;;;8.71;100.00;93647.91;5056974;28;20947;-77
2022/11/23 00:53:38;;;;;;;6.37;4.60;;;;;;;8.67;100.00;93658.66;5092179;28;20455;-78
2022/11/23 00:56:05;;;;;;;8.17;5.33;;;;;;;8.70;100.00;93660.16;5092408;28;20451;-78
2022/11/23 00:58:37;;;;;;;4.47;4.07;;;;;;;8.74;100.00;93645.81;5056498;28;21008;-78
2022/11/23 01:01:06;;;;;;;5.30;4.80;;;;;;;8.81;100.00;93631.16;5092056;28;20490;-78
2022/11/23 01:03:33;;;;;;;8.13;4.50;;;;;;;8.88;100.00;93626.13;5092117;28;20934;-77
2022/11/23 01:06:05;;;;;;;6.27;4.00;;;;;;;8.93;100.00;93616.84;5092234;28;20447;-77
2022/11/23 01:08:32;;;;;;;6.17;4.27;;;;;;;8.98;100.00;93624.28;5092142;28;20467;-78
2022/11/23 01:11:00;;;;;;;5.00;3.83;;;;;;;9.01;100.00;93623.97;5092300;28;20493;-78
2022/11/23 01:13:29;;;;;;;5.67;4.83;;;;;;;9.05;100.00;93638.38;5092006;28;20927;-77
2022/11/23 01:15:57;;;;;;;5.00;4.30;;;;;;;9.07;100.00;93633.00;5092053;28;20456;-78
2022/11/23 01:18:24;;;;;;;4.37;3.90;;;;;;;9.04;100.00;93626.28;5092279;28;21026;-78
2022/11/23 01:20:51;;;;;;;6.80;4.10;;;;;;;9.04;100.00;93615.81;5092107;28;20452;-76
2022/11/23 01:23:18;;;;;;;4.90;4.50;;;;;;;9.03;100.00;93619.41;5092037;28;20444;-78
2022/11/23 01:25:45;;;;;;;4.97;4.50;;;;;;;9.06;100.00;93608.63;5091988;28;20961;-78
2022/11/23 01:28:12;;;;;;;4.67;4.23;;;;;;;9.08;100.00;93606.69;5092244;28;20440;-78
2022/11/23 01:30:39;;;;;;;5.43;4.10;;;;;;;9.09;100.00;93608.31;5092279;28;20455;-77
2022/11/23 01:33:07;;;;;;;4.97;4.40;;;;;;;9.10;100.00;93609.97;5092208;28;20475;-78
2022/11/23 01:35:34;;;;;;;5.17;4.10;;;;;;;9.09;100.00;93624.03;5091744;28;20490;-78
2022/11/23 01:38:01;;;;;;;6.33;5.00;;;;;;;8.95;100.00;93607.06;5056411;28;20472;-76
2022/11/23 01:40:27;;;;;;;7.03;6.30;;;;;;;8.92;100.00;93614.38;5092194;28;20444;-78
2022/11/23 01:42:56;;;;;;;12.67;9.13;;;;;;;8.95;100.00;93627.16;5091907;28;20444;-77
2022/11/23 01:45:33;;;;;;;17.67;11.77;;;;;;;8.96;100.00;93623.56;5095686;28;20469;-78
2022/11/23 01:48:01;;;;;;;11.47;9.13;;;;;;;9.00;100.00;93630.16;5060212;28;20431;-77
2022/11/23 01:50:29;;;;;;;7.93;6.23;;;;;;;9.03;100.00;93634.28;5096146;28;20801;-77
2022/11/23 01:52:57;;;;;;;6.27;4.37;;;;;;;9.06;100.00;93637.41;5096168;28;20451;-78
2022/11/23 01:55:25;;;;;;;6.30;4.57;;;;;;;9.07;100.00;93620.72;5096009;28;20473;-77
2022/11/23 01:57:52;;;;;;;5.37;4.87;;;;;;;9.09;100.00;93641.50;5095876;28;20506;-78
2022/11/23 02:00:19;;;;;;;4.50;4.10;;;;;;;9.04;100.00;93641.97;5095549;28;20797;-77
2022/11/23 02:02:51;;;;;;;3.63;3.33;;;;;;;9.11;100.00;93621.25;5095860;28;20443;-78
2022/11/23 02:05:21;;;;;;;4.83;4.40;;;;;;;9.10;100.00;93609.97;5095829;28;20472;-78
2022/11/23 02:07:50;;;;;;;8.70;5.40;;;;;;;9.13;100.00;93603.59;5096050;28;20460;-77
2022/11/23 02:10:18;;;;;;;8.53;5.60;;;;;;;9.16;100.00;93604.09;5095649;28;20964;-77
2022/11/23 02:12:45;;;;;;;7.10;5.60;;;;;;;9.21;100.00;93606.25;5095587;28;21007;-77
2022/11/23 02:15:12;;;;;;;9.97;5.93;;;;;;;9.11;100.00;93613.41;5095829;28;20476;-77
2022/11/23 02:17:38;;;;;;;5.93;5.33;;;;;;;8.99;100.00;93618.06;5095313;28;20490;-78
2022/11/23 02:20:09;;;;;;;8.43;6.77;;;;;;;8.95;100.00;93629.78;5095770;28;20863;-78
2022/11/23 02:22:45;;;;;;;10.70;7.77;;;;;;;8.95;100.00;93614.09;5095392;28;20450;-78
2022/11/23 02:25:22;;;;;;;13.97;9.67;;;;;;;8.88;100.00;93598.19;5095069;28;20451;-77
2022/11/23 02:27:51;;;;;;;10.90;7.00;;;;;;;8.89;100.00;93599.00;5095417;28;20443;-78
2022/11/23 02:30:18;;;;;;;8.83;6.37;;;;;;;8.81;100.00;93594.53;5094848;28;20486;-78
2022/11/23 02:32:45;;;;;;;9.93;7.50;;;;;;;8.79;100.00;93588.63;5095182;28;20456;-76
2022/11/23 02:35:12;;;;;;;7.43;6.70;;;;;;;8.84;100.00;93591.59;5094931;28;20447;-78
2022/11/23 02:37:41;;;;;;;12.53;10.00;;;;;;;8.88;100.00;93577.25;5095177;28;21036;-78
2022/11/23 02:40:16;;;;;;;13.30;9.97;;;;;;;8.89;100.00;93575.47;5094632;28;20455;-78
2022/11/23 02:42:45;;;;;;;12.03;9.40;;;;;;;8.91;100.00;93578.75;5094944;28;20440;-78
2022/11/23 02:45:24;;;;;;;13.03;9.60;;;;;;;8.83;100.00;93586.53;5094979;28;20522;-77
2022/11/23 02:47:50;;;;;;;23.20;11.87;;;;;;;8.15;100.00;93575.75;5094804;28;20436;-77
2022/11/23 02:50:17;;;;;;;14.90;10.37;;;;;;;7.79;100.00;93562.63;5094814;28;20439;-77
2022/11/23 02:52:44;;;;;;;9.57;7.27;;;;;;;7.72;100.00;93561.56;5092549;28;20428;-78
2022/11/23 02:55:11;;;;;;;9.37;8.00;;;;;;;7.55;100.00;93568.41;5093876;28;20451;-78
2022/11/23 02:57:38;;;;;;;12.60;11.03;;;;;;;7.65;100.00;93544.84;5058943;28;20497;-78
2022/11/23 03:00:06;;;;;;;12.23;9.33;;;;;;;7.70;100.00;93542.63;5058655;28;20451;-77
2022/11/23 03:02:34;;;;;;;13.90;11.17;;;;;;;7.74;100.00;93543.97;5094424;28;20475;-77
2022/11/23 03:05:01;;;;;;;19.77;12.23;;;;;;;7.90;100.00;93536.31;5093917;28;20436;-78
2022/11/23 03:07:27;;;;;;;21.13;13.00;;;;;;;7.84;100.00;93531.69;5093815;28;20447;-77
2022/11/23 03:09:54;;;;;;;17.83;12.93;;;;;;;7.86;100.00;93526.31;5093850;28;20957;-78
2022/11/23 03:12:21;;;;;;;13.87;12.47;;;;;;;7.85;100.00;93512.44;5094129;28;20948;-77
2022/11/23 03:14:48;;;;;;;20.00;13.80;;;;;;;7.84;100.00;93509.97;5094023;28;20446;-75
2022/11/23 03:17:15;;;;;;;19.23;12.73;;;;;;;7.85;100.00;93509.84;5093896;28;20451;-77
2022/11/23 03:19:43;;;;;;;25.13;16.70;;;;;;;7.90;100.00;93509.38;5093520;28;20487;-78
2022/11/23 03:22:10;;;;;;;33.97;17.80;;;;;;;7.98;100.00;93518.13;5093689;28;20473;-77
2022/11/23 03:24:37;;;;;;;22.07;15.80;;;;;;;7.96;100.00;93511.41;5093744;28;20514;-78
2022/11/23 03:27:03;;;;;;;20.87;16.00;;;;;;;8.03;100.00;93510.66;5058086;28;20444;-76
2022/11/23 03:29:30;;;;;;;20.03;14.70;;;;;;;8.01;100.00;93512.59;5093582;28;20447;-77
2022/11/23 03:31:57;;;;;;;19.30;15.00;;;;;;;8.04;100.00;93532.38;5093480;28;20448;-78
2022/11/23 03:34:24;;;;;;;25.30;15.80;;;;;;;7.99;100.00;93511.91;5093836;28;20807;-78
2022/11/23 03:36:52;;;;;;;24.40;16.60;;;;;;;7.99;100.00;93522.38;5093621;28;20462;-78
2022/11/23 03:39:19;;;;;;;22.77;15.73;;;;;;;8.04;100.00;93521.91;5058207;28;20490;-78
2022/11/23 03:41:45;;;;;;;25.00;15.40;;;;;;;8.01;100.00;93511.78;5093570;28;20459;-77
2022/11/23 03:44:12;;;;;;;20.93;15.63;;;;;;;8.11;100.00;93528.22;5093468;28;20463;-77
2022/11/23 03:46:39;;;;;;;17.93;14.60;;;;;;;8.19;100.00;93536.13;5093462;28;20526;-77
2022/11/23 03:49:06;;;;;;;15.77;13.60;;;;;;;8.28;100.00;93503.03;5093657;28;20443;-78
2022/11/23 03:51:33;;;;;;;14.33;12.53;;;;;;;8.33;100.00;93516.47;5093111;28;20485;-78
2022/11/23 03:54:01;;;;;;;14.97;12.50;;;;;;;8.40;100.00;93504.50;5093382;28;20439;-78
2022/11/23 03:56:27;;;;;;;17.17;13.00;;;;;;;8.47;100.00;93510.75;5093151;28;20470;-78
2022/11/23 03:58:54;;;;;;;16.27;12.07;;;;;;;8.51;100.00;93496.41;5093051;28;20515;-77
2022/11/23 04:01:21;;;;;;;13.13;11.77;;;;;;;8.54;100.00;93498.72;5093161;28;20997;-78
2022/11/23 04:03:48;;;;;;;19.73;14.40;;;;;;;8.51;100.00;93500.81;5092845;28;20451;-78
2022/11/23 04:06:15;;;;;;;15.97;12.97;;;;;;;8.21;100.00;93489.75;5057550;28;20465;-78
2022/11/23 04:08:41;;;;;;;18.63;14.50;;;;;;;8.38;100.00;93493.34;5092502;28;20915;-78
2022/11/23 04:11:10;;;;;;;14.70;13.20;;;;;;;8.42;100.00;93491.28;5093204;28;20444;-78
2022/11/23 04:13:37;;;;;;;18.97;14.67;;;;;;;8.49;100.00;93493.13;5093099;28;20464;-77
2022/11/23 04:16:06;;;;;;;21.63;16.87;;;;;;;8.36;100.00;93479.59;5093555;28;20455;-76
2022/11/23 04:18:33;;;;;;;22.97;15.70;;;;;;;8.37;100.00;93483.88;5094340;28;20495;-77
2022/11/23 04:21:00;;;;;;;16.10;14.30;;;;;;;8.40;100.00;93482.75;5075352;28;20766;-77
2022/11/23 04:23:26;;;;;;;18.20;16.10;;;;;;;8.46;100.00;93497.84;5094103;28;20481;-76
2022/11/23 04:25:53;;;;;;;24.13;17.93;;;;;;;8.37;100.00;93483.88;5094250;28;20451;-77
2022/11/23 04:28:21;;;;;;;21.70;14.30;;;;;;;8.24;100.00;93486.03;5093904;28;20460;-76
2022/11/23 04:30:48;;;;;;;14.70;12.77;;;;;;;8.19;100.00;93483.03;5074108;28;20438;-77
2022/11/23 04:33:15;;;;;;;16.80;14.17;;;;;;;8.26;100.00;93499.75;5092250;28;20474;-77
2022/11/23 04:35:42;;;;;;;14.53;12.37;;;;;;;7.97;100.00;93490.34;5093628;28;20445;-77
2022/11/23 04:38:09;;;;;;;15.03;13.43;;;;;;;7.98;100.00;93505.06;5094227;28;20842;-78
2022/11/23 04:40:35;;;;;;;16.37;14.23;;;;;;;7.93;100.00;93499.47;5107929;28;20848;-77
2022/11/23 04:43:03;;;;;;;15.33;13.77;;;;;;;7.95;100.00;93488.84;5113796;28;21339;-77
2022/11/23 04:45:31;;;;;;;24.17;16.13;;;;;;;7.81;100.00;93494.63;5101131;28;20458;-76
2022/11/23 04:47:58;;;;;;;23.40;14.83;;;;;;;7.93;100.00;93490.81;5105363;28;20442;-77
2022/11/23 04:50:25;;;;;;;18.10;15.20;;;;;;;7.98;100.00;93518.13;5113878;28;20945;-77
2022/11/23 04:52:51;;;;;;;25.10;17.13;;;;;;;8.02;100.00;93526.47;5080538;28;20803;-78
2022/11/23 04:55:18;;;;;;;19.80;17.23;;;;;;;8.00;100.00;93541.47;5092998;28;20447;-78
2022/11/23 04:57:45;;;;;;;24.43;17.23;;;;;;;8.02;100.00;93529.91;5093100;28;20446;-77
2022/11/23 05:00:13;;;;;;;19.50;15.70;;;;;;;8.06;100.00;93536.47;5107546;28;20485;-77
2022/11/23 05:02:42;;;;;;;19.80;15.90;;;;;;;8.07;100.00;93527.66;5060802;28;20447;-77
2022/11/23 05:05:09;;;;;;;22.57;15.07;;;;;;;8.13;100.00;93556.81;5091471;28;20440;-76
2022/11/23 05:07:36;;;;;;;23.57;16.83;;;;;;;8.12;100.00;93555.97;5073533;28;21049;-77
2022/11/23 05:10:03;;;;;;;21.67;16.53;;;;;;;8.11;100.00;93556.94;5093380;28;20448;-76
2022/11/23 05:12:30;;;;;;;23.70;16.97;;;;;;;8.12;100.00;93561.22;5093067;28;21178;-78
2022/11/23 05:14:57;;;;;;;19.30;17.30;;;;;;;8.22;100.00;93574.19;5103071;28;20933;-77
2022/11/23 05:17:24;;;;;;;24.73;19.10;;;;;;;8.19;100.00;93543.13;5077147;28;20458;-77
2022/11/23 05:19:52;;;;;;;21.43;17.07;;;;;;;8.20;100.00;93557.84;5112873;28;20474;-77
2022/11/23 05:22:19;;;;;;;26.90;19.33;;;;;;;8.28;100.00;93537.84;5112167;28;20873;-77
2022/11/23 05:24:46;;;;;;;28.67;18.40;;;;;;;8.19;100.00;93540.53;5102639;28;20444;-78
2022/11/23 05:27:13;;;;;;;27.37;18.83;;;;;;;8.31;100.00;93557.63;5095124;28;20801;-77
2022/11/23 05:29:40;;;;;;;24.43;18.40;;;;;;;8.32;100.00;93546.19;5112739;28;20449;-76
2022/11/23 05:32:07;;;;;;;27.53;18.60;;;;;;;8.31;100.00;93561.06;5100226;28;20490;-77
2022/11/23 05:34:33;;;;;;;22.10;16.50;;;;;;;8.28;100.00;93561.34;5091762;28;20482;-78
2022/11/23 05:37:04;;;;;;;24.75;19.40;;;;;;;8.32;100.00;93533.94;5091453;28;20445;-77
2022/11/23 05:39:31;;;;;;;23.27;18.37;;;;;;;8.30;100.00;93555.97;5074320;28;20218;-77
2022/11/23 05:41:58;;;;;;;20.00;16.03;;;;;;;8.37;100.00;93544.78;5092497;28;20505;-76
2022/11/23 05:44:24;;;;;;;18.50;15.70;;;;;;;8.45;100.00;93530.19;5092784;28;20459;-76
2022/11/23 05:46:51;;;;;;;16.97;14.67;;;;;;;8.45;100.00;93514.50;5093090;28;20451;-76
2022/11/23 05:49:21;;;;;;;21.33;16.57;;;;;;;8.49;100.00;93531.50;5093061;28;20455;-77
2022/11/23 05:51:48;;;;;;;21.40;17.03;;;;;;;8.38;100.00;93511.63;5093242;28;20439;-79
2022/11/23 05:54:16;;;;;;;24.47;18.40;;;;;;;8.30;100.00;93522.81;5101085;28;20459;-77
2022/11/23 05:56:43;;;;;;;22.00;16.43;;;;;;;8.43;100.00;93530.31;5100415;28;20458;-77
2022/11/23 05:59:10;;;;;;;21.60;17.37;;;;;;;8.47;100.00;93531.66;5113089;28;20475;-76
2022/11/23 06:01:38;;;;;;;20.20;18.00;;;;;;;8.58;100.00;93541.88;5112249;28;20475;-77
2022/11/23 06:04:06;;;;;;;22.17;17.43;;;;;;;8.69;100.00;93553.91;5105295;28;20447;-77
2022/11/23 06:06:34;;;;;;;19.23;16.50;;;;;;;8.76;100.00;93549.72;5070634;28;20494;-78
2022/11/23 06:09:01;;;;;;;22.97;17.90;;;;;;;8.84;100.00;93539.28;5098669;28;20447;-77
2022/11/23 06:11:30;;;;;;;32.57;21.27;;;;;;;8.77;100.00;93521.75;5101274;28;20967;-78
2022/11/23 06:13:56;;;;;;;22.40;18.40;;;;;;;8.94;100.00;93539.19;5104248;28;20451;-78
2022/11/23 06:16:23;;;;;;;37.13;25.00;;;;;;;9.10;100.00;93538.50;5077445;28;20451;-78
2022/11/23 06:18:50;;;;;;;37.57;27.20;;;;;;;9.18;100.00;93525.44;5101953;28;20470;-77
2022/11/23 06:21:17;;;;;;;32.90;24.10;;;;;;;9.26;100.00;93549.88;5113380;28;20458;-78
2022/11/23 06:23:44;;;;;;;34.63;25.50;;;;;;;9.27;100.00;93553.31;5095210;28;20451;-77
2022/11/23 06:26:11;;;;;;;34.10;23.10;;;;;;;9.32;100.00;93551.06;5105501;28;20564;-78
2022/11/23 06:28:40;;;;;;;33.97;26.30;;;;;;;9.37;100.00;93554.03;5094153;28;20615;-78
2022/11/23 06:31:07;;;;;;;31.40;24.63;;;;;;;9.49;100.00;93567.66;5099346;28;20539;-78
2022/11/23 06:33:35;;;;;;;33.07;21.10;;;;;;;9.45;100.00;93555.84;5100876;28;20440;-78
2022/11/23 06:36:03;;;;;;;25.33;21.53;;;;;;;9.52;100.00;93562.09;5069729;28;20478;-78
2022/11/23 06:38:30;;;;;;;29.67;22.40;;;;;;;9.58;100.00;93562.31;5095790;27;20807;-77
2022/11/23 06:40:58;;;;;;;28.53;21.90;;;;;;;9.64;100.00;93560.88;5094215;28;20458;-79
2022/11/23 06:43:25;;;;;;;45.97;27.80;;;;;;;9.68;100.00;93558.75;5093401;28;20885;-79
2022/11/23 06:45:53;;;;;;;38.10;25.57;;;;;;;9.72;100.00;93550.41;5102344;28;20953;-78
2022/11/23 06:48:20;;;;;;;34.30;25.90;;;;;;;9.80;100.00;93558.28;5094960;28;20928;-78
2022/11/23 06:50:47;;;;;;;32.50;25.23;;;;;;;9.92;100.00;93564.09;5094074;28;20449;-78
2022/11/23 06:53:14;;;;;;;29.33;21.70;;;;;;;10.02;100.00;93559.53;5093746;28;20946;-77
2022/11/23 06:55:41;;;;;;;23.87;19.97;;;;;;;10.13;100.00;93568.91;5093858;28;20532;-78
2022/11/23 06:58:08;;;;;;;29.03;19.80;;;;;;;10.24;100.00;93558.16;5093478;28;20842;-78
2022/11/23 07:00:35;;;;;;;26.67;21.00;;;;;;;10.33;100.00;93559.78;5093453;28;20504;-78
2022/11/23 07:03:03;;;;;;;25.30;19.33;;;;;;;10.37;100.00;93574.22;5092918;28;20451;-78
2022/11/23 07:05:30;;;;;;;22.00;19.03;;;;;;;10.32;100.00;93560.78;5093051;28;20441;-76
2022/11/23 07:07:57;;;;;;;30.03;22.63;;;;;;;10.06;100.00;93541.69;5113927;28;20453;-78
2022/11/23 07:10:24;;;;;;;34.57;22.60;;;;;;;9.95;100.00;93561.16;5058068;28;20464;-79
2022/11/23 07:12:51;;;;;;;29.57;22.80;;;;;;;10.07;100.00;93564.28;5093572;28;20443;-78
2022/11/23 07:15:18;;;;;;;26.20;20.33;;;;;;;10.15;100.00;93575.63;5093655;28;20943;-79
2022/11/23 07:17:45;;;;;;;24.90;21.10;;;;;;;10.26;100.00;93566.66;5096383;28;20521;-78
2022/11/23 07:20:14;;;;;;;26.27;21.20;;;;;;;10.32;100.00;93563.41;5113739;28;20469;-78
2022/11/23 07:22:41;;;;;;;26.17;21.33;;;;;;;10.34;100.00;93558.81;5113484;27;20446;-79
2022/11/23 07:25:08;;;;;;;22.40;19.90;;;;;;;10.12;100.00;93548.88;5093129;28;20485;-79
2022/11/23 07:27:35;;;;;;;23.00;19.10;;;;;;;10.16;100.00;93545.00;5092980;28;20442;-76
2022/11/23 07:30:02;;;;;;;25.17;22.43;;;;;;;10.27;100.00;93557.81;5092170;28;20948;-77
2022/11/23 07:32:29;;;;;;;30.83;25.00;;;;;;;10.43;100.00;93570.97;5092763;28;20455;-77
2022/11/23 07:34:55;;;;;;;32.07;25.53;;;;;;;10.49;100.00;93562.44;5093029;28;20446;-79
2022/11/23 07:37:23;;;;;;;26.93;21.23;;;;;;;10.50;100.00;93550.16;5103164;28;20452;-77
2022/11/23 07:39:51;;;;;;;26.37;21.97;;;;;;;10.53;100.00;93561.13;5077784;28;20477;-77
2022/11/23 07:42:18;;;;;;;28.90;24.53;;;;;;;10.61;100.00;93564.75;5114412;28;20506;-77
2022/11/23 07:44:45;;;;;;;55.03;36.30;;;;;;;10.78;100.00;93575.09;5115360;28;20443;-77
2022/11/23 07:47:12;;;;;;;47.10;31.63;;;;;;;10.90;100.00;93565.09;5114938;28;21181;-77
2022/11/23 07:49:39;;;;;;;33.63;25.70;;;;;;;10.97;100.00;93566.06;5114904;28;20800;-76
2022/11/23 07:52:06;;;;;;;36.43;26.93;;;;;;;11.17;100.00;93562.09;5115369;28;20641;-76
2022/11/23 07:54:34;;;;;;;30.57;22.00;;;;;;;11.24;100.00;93564.06;5115341;28;20430;-76
2022/11/23 07:57:01;;;;;;;24.00;20.40;;;;;;;11.24;100.00;93561.44;5115102;28;20445;-77
2022/11/23 07:59:28;;;;;;;22.17;19.60;;;;;;;11.35;100.00;93561.94;5115060;28;20498;-77
2022/11/23 08:01:55;;;;;;;20.50;18.33;;;;;;;11.37;100.00;93557.31;5115769;28;20811;-77
2022/11/23 08:04:21;;;;;;;20.20;17.10;;;;;;;11.36;100.00;93568.81;5079536;28;20925;-77
2022/11/23 08:06:48;;;;;;;21.47;17.47;;;;;;;11.19;100.00;93564.56;5079420;28;20452;-76
2022/11/23 08:09:15;;;;;;;20.60;18.10;;;;;;;11.20;100.00;93568.00;5115133;28;20833;-77
2022/11/23 08:11:44;;;;;;;23.87;18.77;;;;;;;11.32;100.00;93569.31;5115206;27;20453;-76
2022/11/23 08:14:10;;;;;;;20.33;17.20;;;;;;;11.34;100.00;93557.66;5115163;28;20818;-76
2022/11/23 08:16:37;;;;;;;20.77;18.67;;;;;;;11.41;100.00;93555.19;5116189;28;20431;-77
2022/11/23 08:19:04;;;;;;;21.30;17.13;;;;;;;11.22;100.00;93556.34;5114764;28;20454;-76
2022/11/23 08:21:31;;;;;;;21.30;17.97;;;;;;;11.40;100.00;93559.63;5115015;28;20504;-77
2022/11/23 08:23:57;;;;;;;19.87;17.77;;;;;;;11.52;100.00;93560.06;5115000;28;20491;-76
2022/11/23 08:26:24;;;;;;;20.40;17.80;;;;;;;11.45;100.00;93562.56;5114483;28;20446;-76
2022/11/23 08:28:52;;;;;;;22.50;18.73;;;;;;;11.38;100.00;93548.47;5115186;28;20979;-76
2022/11/23 08:31:19;;;;;;;28.20;20.10;;;;;;;11.45;100.00;93543.34;5114402;28;20442;-76
2022/11/23 08:33:46;;;;;;;25.23;21.40;;;;;;;10.98;100.00;93545.88;5114855;28;20458;-76
2022/11/23 08:36:13;;;;;;;35.93;23.10;;;;;;;11.01;100.00;93545.56;5109190;28;20430;-77
2022/11/23 08:38:40;;;;;;;25.50;22.77;;;;;;;11.11;100.00;93552.28;5114219;27;20856;-77
2022/11/23 08:44:30;;;;;;;24.50;21.83;;;;;;;11.32;100.00;93553.56;5089681;28;20429;-77
2022/11/23 08:46:56;;;;;;;26.70;23.80;;;;;;;11.38;100.00;93553.72;5093612;28;20439;-76
2022/11/23 08:49:23;;;;;;;33.27;24.53;;;;;;;11.38;100.00;93545.84;5074275;28;21133;-76
2022/11/23 08:51:50;;;;;;;28.17;25.00;;;;;;;11.35;100.00;93551.41;5093396;28;20455;-77
2022/11/23 08:54:17;;;;;;;32.77;25.90;;;;;;;11.51;100.00;93542.66;5092306;28;20787;-76
2022/11/23 08:56:44;;;;;;;27.30;23.53;;;;;;;11.46;100.00;93545.81;5093443;28;20451;-75
2022/11/23 08:59:11;;;;;;;26.67;23.87;;;;;;;11.47;100.00;93563.19;5093565;28;20447;-77
2022/11/23 09:01:39;;;;;;;30.83;25.10;;;;;;;11.54;100.00;93563.34;5094189;28;20495;-77
2022/11/23 09:04:06;;;;;;;31.17;24.50;;;;;;;11.69;100.00;93566.94;5109852;28;20458;-79
2022/11/23 09:06:33;;;;;;;29.90;25.50;;;;;;;11.74;100.00;93561.97;5106984;28;20447;-77
2022/11/23 09:09:00;;;;;;;30.47;24.63;;;;;;;11.77;100.00;93559.00;5111061;28;20430;-76
2022/11/23 09:11:27;;;;;;;30.03;24.97;;;;;;;11.70;100.00;93542.28;5092400;28;20448;-77
2022/11/23 09:13:54;;;;;;;30.37;25.00;;;;;;;11.78;100.00;93537.03;5108074;28;20811;-77
2022/11/23 09:16:20;;;;;;;34.50;25.10;;;;;;;11.64;100.00;93544.78;5108343;27;20457;-77
2022/11/23 09:18:49;;;;;;;33.37;25.47;;;;;;;11.79;100.00;93554.44;5102493;28;20841;-77
2022/11/23 09:21:16;;;;;;;26.17;22.70;;;;;;;11.89;100.00;93546.34;5092168;28;20577;-77
2022/11/23 09:23:43;;;;;;;31.83;23.37;;;;;;;12.08;100.00;93551.19;5091843;28;20447;-77
2022/11/23 09:26:10;;;;;;;28.60;22.90;;;;;;;12.01;100.00;93534.47;5092085;28;20458;-77
2022/11/23 09:28:36;;;;;;;23.77;19.67;;;;;;;11.91;98.92;93527.78;5091438;28;20533;-77
2022/11/23 09:31:05;;;;;;;27.23;19.73;;;;;;;11.93;100.00;93525.81;5056135;28;20442;-78
2022/11/23 09:33:31;;;;;;;31.30;19.80;;;;;;;11.93;100.00;93524.00;5092073;28;20443;-76
2022/11/23 09:36:01;;;;;;;26.23;23.10;;;;;;;12.17;100.00;93523.06;5092171;28;21120;-77
2022/11/23 09:38:28;;;;;;;25.13;19.43;;;;;;;12.32;100.00;93526.56;5091098;28;20447;-77
2022/11/23 09:41:08;;;;;;;26.60;22.30;;;;;;;12.29;100.00;93532.16;5104888;28;20534;-75
2022/11/23 09:43:45;;;;;;;20.77;18.50;;;;;;;12.27;99.21;93523.63;5111487;28;20497;-77
2022/11/23 09:46:25;;;;;;;31.33;20.37;;;;;;;12.23;99.00;93517.09;5102628;28;20443;-76
2022/11/23 09:49:09;;;;;;;28.47;21.90;;;;;;;12.23;99.01;93524.16;5098878;28;20934;-77
2022/11/23 09:51:40;;;;;;;30.10;21.97;;;;;;;12.17;99.72;93525.69;5042888;28;20991;-76
2022/11/23 09:54:19;;;;;;;30.53;21.33;;;;;;;12.18;100.00;93524.69;5028409;28;20656;-75
2022/11/23 09:56:50;;;;;;;27.10;22.13;;;;;;;12.13;99.08;93520.91;5047343;28;20971;-76
2022/11/23 09:59:26;;;;;;;27.13;22.57;;;;;;;12.21;99.91;93523.53;5048738;28;20469;-77
2022/11/23 10:01:52;;;;;;;22.90;20.40;;;;;;;12.34;99.41;93518.50;5034744;28;20564;-77
2022/11/23 10:04:20;;;;;;;38.20;24.50;;;;;;;12.43;100.00;93506.09;5037659;28;20580;-76
2022/11/23 10:06:56;;;;;;;35.30;25.57;;;;;;;12.42;99.18;93507.91;5046444;28;20601;-76
2022/11/23 10:09:34;;;;;;;34.17;23.40;;;;;;;12.38;98.60;93494.28;5042858;28;20439;-76
2022/11/23 10:12:24;;;;;;;29.80;24.00;;;;;;;12.43;99.50;93500.84;5038537;28;20487;-77
2022/11/23 10:15:03;;;;;;;33.67;25.10;;;;;;;12.51;98.73;93514.78;5051950;28;20862;-77
2022/11/23 10:17:49;;;;;;;31.67;23.43;;;;;;;12.46;99.05;93511.84;5039424;28;20446;-78
2022/11/23 10:20:28;;;;;;;32.60;23.63;;;;;;;12.43;98.81;93524.50;5038365;28;20479;-76
2022/11/23 10:23:00;;;;;;;29.80;23.97;;;;;;;12.36;98.52;93525.22;5042230;28;21005;-77
2022/11/23 10:25:32;;;;;;;32.60;25.03;;;;;;;12.34;99.18;93524.56;5046029;28;20445;-77
2022/11/23 10:28:09;;;;;;;35.00;24.03;;;;;;;12.39;99.16;93521.41;5051046;28;20847;-77
2022/11/23 10:30:37;;;;;;;26.13;21.20;;;;;;;12.44;99.17;93519.09;5098228;28;20466;-77
2022/11/23 10:33:17;;;;;;;27.00;21.20;;;;;;;12.47;98.93;93508.22;5104543;28;20438;-77
2022/11/23 10:35:44;;;;;;;37.03;23.03;;;;;;;12.48;98.37;93503.78;5067243;28;20443;-77
2022/11/23 10:38:14;;;;;;;29.07;22.47;;;;;;;12.52;98.00;93518.22;5105095;28;20447;-77
2022/11/23 10:40:46;;;;;;;33.00;22.10;;;;;;;12.47;98.00;93504.78;5109209;28;20477;-76
2022/11/23 10:43:17;;;;;;;26.37;21.37;;;;;;;12.47;97.26;93502.16;5094594;28;20512;-75
2022/11/23 10:45:44;;;;;;;29.87;20.10;;;;;;;12.54;97.45;93508.34;5109062;28;20444;-76
2022/11/23 10:48:11;;;;;;;31.53;22.07;;;;;;;12.57;97.98;93521.13;5095861;28;20459;-78
2022/11/23 10:50:39;;;;;;;28.37;23.33;;;;;;;12.57;97.92;93526.41;5107608;28;20447;-76
2022/11/23 10:53:22;;;;;;;29.70;20.73;;;;;;;12.61;98.07;93522.41;5094668;28;20448;-74
2022/11/23 10:55:53;;;;;;;24.30;19.63;;;;;;;12.63;98.10;93536.22;5108932;28;20788;-77
2022/11/23 10:58:28;;;;;;;23.77;18.70;;;;;;;12.55;98.68;93536.28;5094123;28;20455;-77
2022/11/23 11:01:03;;;;;;;11.03;8.17;;;;;;;12.43;95.52;93529.78;5094338;28;20497;-77
2022/11/23 11:03:32;;;;;;;11.20;5.83;;;;;;;12.30;93.27;93512.75;5098379;28;20443;-77
2022/11/23 11:06:00;;;;;;;4.30;4.00;;;;;;;12.22;87.38;93518.09;5094344;28;20531;-78
2022/11/23 11:08:31;;;;;;;6.57;4.97;;;;;;;12.31;90.55;93514.41;5102873;28;20460;-77
2022/11/23 11:11:00;;;;;;;6.43;5.80;;;;;;;12.32;93.48;93520.47;5099744;28;20443;-78
2022/11/23 11:13:29;;;;;;;11.17;8.03;;;;;;;12.34;95.66;93521.94;5065385;28;20444;-78
2022/11/23 11:15:59;;;;;;;11.23;9.47;;;;;;;12.43;97.11;93527.16;5108573;28;20493;-78
2022/11/23 11:18:28;;;;;;;14.80;8.80;;;;;;;12.41;97.50;93509.72;5093270;28;20942;-78
2022/11/23 11:20:57;;;;;;;13.40;9.70;;;;;;;12.41;97.90;93499.19;5097243;28;21108;-77
2022/11/23 11:23:25;;;;;;;11.47;8.13;;;;;;;12.56;98.51;93495.81;5103277;28;20859;-78
2022/11/23 11:26:07;;;;;;;21.43;15.20;;;;;;;12.59;93.62;93495.47;5108331;28;20465;-78
2022/11/23 11:28:38;;;;;;;11.03;9.47;;;;;;;12.65;92.66;93494.75;5094746;28;21037;-79